Altisource Residential Corp (RESI) Latest Bloomsberg Price


Mffais Ranking #2106 Overall / #37 Industry
Industry: Mortgage Finance

Number of Companies: 67 (Ranking #2042 Overall/#33 Industry)
Inflow: $ 16,183 (K) (Ranking #1825 Overall/#23 Industry)
Outflow: $ -39,583 (K)
Mffais Flow: $ -23,400 (K) (Ranking #2106 Overall/#37 Industry)


Receive a FREE weekly executive review of stocks moving into the top 10, taking the top industy spot or moving up within their industry. Sent directly to your Inbox every Saturday. Sign up today and get last week's review immediately sent to you.

We value and respect your privacy. Please read our Terms and Conditions which states our firm commitment to your privacy. Your email address will not be shared with a third party, nor will it be sold or used for purposes other than subscription for the weekly review.

Owner CPOR Shares Action Qty Chg Invested (K) Total Current Value (K)
Portolan Capital Management Llc 2016-09-30 586,569 New Holding 586,569 $ 5,396 $ 5,396
Spot Trading L L C 2016-09-30 444,277 New Holding 444,277 $ 4,087 $ 4,087
Pyrrho Capital Management Lp 2016-09-30 120,000 New Holding 120,000 $ 1,104 $ 1,104
Capital Fund Management S A 2016-09-30 74,000 New Holding 74,000 $ 680 $ 680
Secor Capital Advisors Lp 2016-09-30 46,314 New Holding 46,314 $ 426 $ 426
Omers Administration Corp 2016-09-30 43,496 New Holding 43,496 $ 400 $ 400
Dynamic Technology Lab Private Ltd 2016-09-30 41,747 New Holding 41,747 $ 384 $ 384
Peak6 Investments L P 2016-09-30 41,500 New Holding 41,500 $ 381 $ 381
Laurel Wealth Advisors Inc 2016-09-30 57,027 Added More 39,630 $ 364 $ 524
Springbok Capital Management Llc 2016-09-30 30,800 New Holding 30,800 $ 283 $ 283
Kazazian Asset Management Llc 2016-09-30 136,260 Added More 29,000 $ 266 $ 1,253
Cutler Group Lp 2016-09-30 30,400 Added More 28,200 $ 259 $ 279
Squarepoint Ops Llc 2016-09-30 27,695 New Holding 27,695 $ 254 $ 254
Simplex Trading Llc 2016-09-30 27,099 Added More 22,815 $ 209 $ 249
Weiss Asset Management Lp 2016-09-30 21,975 New Holding 21,975 $ 202 $ 202
Group One Trading L P 2016-09-30 19,779 New Holding 19,779 $ 181 $ 181
Parametric Portfolio Associates Llc 2016-09-30 68,212 Added More 19,161 $ 176 $ 627
Bayesian Capital Management Lp 2016-09-30 16,277 New Holding 16,277 $ 149 $ 149
Sg Americas Securities Llc 2016-09-30 14,464 New Holding 14,464 $ 133 $ 133
Northern Trust Corp 2016-09-30 576,508 Added More 13,405 $ 123 $ 5,303
Mackenzie Financial Corp 2016-09-30 12,958 New Holding 12,958 $ 119 $ 119
Nationwide Fund Advisors 2016-09-30 106,073 Added More 11,900 $ 109 $ 975
Kcg Holdings Inc 2016-09-30 10,779 New Holding 10,779 $ 99 $ 99
Alpine Woods Capital Investors Llc 2016-09-30 35,897 Added More 10,000 $ 92 $ 330
Indexiq Advisors Llc 2016-09-30 50,135 Added More 9,507 $ 87 $ 461
Global X Management Co Llc 2016-09-30 748,149 Added More 7,291 $ 67 $ 6,882
Cubist Systematic Strategies Llc 2016-09-30 33,898 Added More 4,831 $ 44 $ 311
Quantbot Technologies Lp 2016-09-30 4,232 Added More 3,448 $ 31 $ 38
Point72 Asia Hong Kong Ltd 2016-09-30 3,000 New Holding 3,000 $ 27 $ 27
California State Teachers Retirement System 2016-09-30 110,840 Added More 1,100 $ 10 $ 1,019
Legal General Group Plc 2016-09-30 22,600 Added More 936 $ 8 $ 207
Rhumbline Advisers 2016-09-30 65,443 Added More 830 $ 7 $ 602
Penserra Capital Management Llc 2016-09-30 787 New Holding 787 $ 7 $ 7
Zurcher Kantonalbank Zurich Cantonalbank 2016-09-30 2,320 Added More 593 $ 5 $ 21
American International Group Inc 2016-09-30 30,173 Added More 46 $ 0 $ 277
Next Financial Group Inc 2016-09-30 5 New Holding 5 $ 0 $ 0
Schonfeld Strategic Advisors Llc 2016-09-30 17,000 No Change 0 $ 0 $ 156
Brown Brothers Harriman Co 2016-09-30 1,591 No Change 0 $ 0 $ 14
Advisor Group Inc 2016-09-30 1,750 No Change 0 $ 0 $ 16
Gam Holding Ag 2016-09-30 467,911 No Change 0 $ 0 $ 4,304
Putnam Investments Llc 2016-09-30 7,949,590 No Change 0 $ 0 $ 73,136
Blackrock Inc 2016-09-30 15,077 No Change 0 $ 0 $ 138
Dreman Value Management L L C 2016-09-30 1 No Change 0 $ 0 $ 0
Teachers Advisors Inc 2016-09-30 84,977 No Change 0 $ 0 $ 781
Nisa Investment Advisors Llc 2016-09-30 1,200 No Change 0 $ 0 $ 11
New York State Common Retirement Fund 2016-09-30 54,300 No Change 0 $ 0 $ 499
Sei Investments Co 2016-09-30 130 No Change 0 $ 0 $ 1
Us Bancorp De 2016-09-30 400 No Change 0 $ 0 $ 3
Pacific Ridge Capital Partners Llc 2016-09-30 40,160 Sold Some -20 $ -0 $ 369
Van Eck Associates Corp 2016-09-30 3,606 Sold Some -127 $ -1 $ 33
Pnc Financial Services Group Inc 2016-09-30 0 Sold All -292 $ -2 $ 0
Chicago Partners Investment Group Llc 2016-09-30 3,899 Sold Some -390 $ -3 $ 35
Ladenburg Thalmann Financial Services Inc 2016-09-30 0 Sold All -450 $ -4 $ 0
Blackrock Investment Management Llc 2016-09-30 217,640 Sold Some -833 $ -7 $ 2,002
Tower Research Capital Llc Trc 2016-09-30 649 Sold Some -2,231 $ -20 $ 5
Swiss National Bank 2016-09-30 88,100 Sold Some -4,500 $ -41 $ 810
Teacher Retirement System Of Texas 2016-09-30 0 Sold All -7,834 $ -72 $ 0
Jacobs Levy Equity Management Inc 2016-09-30 13,800 Sold Some -14,400 $ -132 $ 126
Fox Run Management L L C 2016-09-30 0 Sold All -15,300 $ -140 $ 0
Nuveen Fund Advisors Llc 2016-09-30 0 Sold All -21,200 $ -195 $ 0
Hightower Advisors Llc 2016-09-30 0 Sold All -27,801 $ -255 $ 0
Seven Locks Capital Management Lp 2016-09-30 369,135 Sold Some -63,400 $ -583 $ 3,396
Emerald Acquisition Ltd 2016-09-30 67,760 Sold Some -97,675 $ -898 $ 623
A R T Advisors Llc 2016-09-30 21,800 Sold Some -136,659 $ -1,257 $ 200
Kennedy Capital Management Inc 2016-09-30 0 Sold All -249,810 $ -2,298 $ 0
Luxor Capital Group Lp 2016-09-30 3,161,323 Sold Some -965,178 $ -8,879 $ 29,084
Litespeed Management L L C 2016-09-30 0 Sold All -2,694,504 $ -24,789 $ 0